sensor_id;sensor_type;location;lat;lon;timestamp;temperature;humidity
35111;DHT22;21290;50.158;8.658;2024-02-16T00:02:03;10.50;99.90
35111;DHT22;21290;50.158;8.658;2024-02-16T00:04:30;10.50;99.90
35111;DHT22;21290;50.158;8.658;2024-02-16T00:06:57;10.50;99.90
35111;DHT22;21290;50.158;8.658;2024-02-16T00:09:24;10.50;99.90
35111;DHT22;21290;50.158;8.658;2024-02-16T00:11:51;10.50;99.90
35111;DHT22;21290;50.158;8.658;2024-02-16T00:14:19;10.50;99.90
35111;DHT22;21290;50.158;8.658;2024-02-16T00:16:47;10.50;99.90
35111;DHT22;21290;50.158;8.658;2024-02-16T00:19:14;10.40;99.90
35111;DHT22;21290;50.158;8.658;2024-02-16T00:21:41;10.40;99.90
35111;DHT22;21290;50.158;8.658;2024-02-16T00:24:09;10.50;99.90
35111;DHT22;21290;50.158;8.658;2024-02-16T00:26:37;10.40;99.90
35111;DHT22;21290;50.158;8.658;2024-02-16T00:29:06;10.40;99.90
35111;DHT22;21290;50.158;8.658;2024-02-16T00:31:33;10.40;99.90
35111;DHT22;21290;50.158;8.658;2024-02-16T00:34:00;10.30;99.90
35111;DHT22;21290;50.158;8.658;2024-02-16T00:36:27;10.30;99.90
35111;DHT22;21290;50.158;8.658;2024-02-16T00:38:54;10.30;99.90
35111;DHT22;21290;50.158;8.658;2024-02-16T00:41:22;10.30;99.90
35111;DHT22;21290;50.158;8.658;2024-02-16T00:43:49;10.30;99.90
35111;DHT22;21290;50.158;8.658;2024-02-16T00:46:17;10.30;99.90
35111;DHT22;21290;50.158;8.658;2024-02-16T00:48:44;10.30;99.90
35111;DHT22;21290;50.158;8.658;2024-02-16T00:51:11;10.30;99.90
35111;DHT22;21290;50.158;8.658;2024-02-16T00:53:38;10.20;99.90
35111;DHT22;21290;50.158;8.658;2024-02-16T00:56:05;10.20;99.90
35111;DHT22;21290;50.158;8.658;2024-02-16T00:58:31;10.20;99.90
35111;DHT22;21290;50.158;8.658;2024-02-16T01:00:58;10.10;99.90
35111;DHT22;21290;50.158;8.658;2024-02-16T01:03:25;10.10;99.90
35111;DHT22;21290;50.158;8.658;2024-02-16T01:05:52;10.10;99.90
35111;DHT22;21290;50.158;8.658;2024-02-16T01:08:19;10.10;99.90
35111;DHT22;21290;50.158;8.658;2024-02-16T01:10:46;10.10;99.90
35111;DHT22;21290;50.158;8.658;2024-02-16T01:13:13;10.10;99.90
35111;DHT22;21290;50.158;8.658;2024-02-16T01:15:40;10.00;99.90
35111;DHT22;21290;50.158;8.658;2024-02-16T01:18:07;10.10;99.90
35111;DHT22;21290;50.158;8.658;2024-02-16T01:20:34;10.10;99.90
35111;DHT22;21290;50.158;8.658;2024-02-16T01:23:01;10.10;99.90
35111;DHT22;21290;50.158;8.658;2024-02-16T01:25:29;10.00;99.90
35111;DHT22;21290;50.158;8.658;2024-02-16T01:27:56;10.10;99.90
35111;DHT22;21290;50.158;8.658;2024-02-16T01:30:22;10.00;99.90
35111;DHT22;21290;50.158;8.658;2024-02-16T01:32:49;10.00;99.90
35111;DHT22;21290;50.158;8.658;2024-02-16T01:35:16;10.00;99.90
35111;DHT22;21290;50.158;8.658;2024-02-16T01:37:43;10.00;99.90
35111;DHT22;21290;50.158;8.658;2024-02-16T01:40:10;10.00;99.90
35111;DHT22;21290;50.158;8.658;2024-02-16T01:42:44;10.00;99.90
35111;DHT22;21290;50.158;8.658;2024-02-16T01:45:11;10.00;99.90
35111;DHT22;21290;50.158;8.658;2024-02-16T01:47:43;10.00;99.90
35111;DHT22;21290;50.158;8.658;2024-02-16T01:50:10;10.00;99.90
35111;DHT22;21290;50.158;8.658;2024-02-16T01:52:38;10.00;99.90
35111;DHT22;21290;50.158;8.658;2024-02-16T01:55:05;10.00;99.90
35111;DHT22;21290;50.158;8.658;2024-02-16T01:57:36;9.90;99.90
35111;DHT22;21290;50.158;8.658;2024-02-16T02:00:06;9.90;99.90
35111;DHT22;21290;50.158;8.658;2024-02-16T02:02:37;9.90;99.90
35111;DHT22;21290;50.158;8.658;2024-02-16T02:05:04;9.80;99.90
35111;DHT22;21290;50.158;8.658;2024-02-16T02:07:31;9.80;99.90
35111;DHT22;21290;50.158;8.658;2024-02-16T02:09:58;9.80;99.90
35111;DHT22;21290;50.158;8.658;2024-02-16T02:12:25;9.80;99.90
35111;DHT22;21290;50.158;8.658;2024-02-16T02:14:52;9.70;99.90
35111;DHT22;21290;50.158;8.658;2024-02-16T02:17:19;9.70;99.90
35111;DHT22;21290;50.158;8.658;2024-02-16T02:19:46;9.70;99.90
35111;DHT22;21290;50.158;8.658;2024-02-16T02:22:20;9.70;99.90
35111;DHT22;21290;50.158;8.658;2024-02-16T02:24:47;9.70;99.90
35111;DHT22;21290;50.158;8.658;2024-02-16T02:27:15;9.70;99.90
35111;DHT22;21290;50.158;8.658;2024-02-16T02:29:43;9.70;99.90
35111;DHT22;21290;50.158;8.658;2024-02-16T02:32:10;9.70;99.90
35111;DHT22;21290;50.158;8.658;2024-02-16T02:34:38;9.70;99.90
35111;DHT22;21290;50.158;8.658;2024-02-16T02:37:06;9.70;99.90
35111;DHT22;21290;50.158;8.658;2024-02-16T02:39:33;9.70;99.90
35111;DHT22;21290;50.158;8.658;2024-02-16T02:41:59;9.70;99.90
35111;DHT22;21290;50.158;8.658;2024-02-16T02:44:26;9.70;99.90
35111;DHT22;21290;50.158;8.658;2024-02-16T02:46:53;9.60;99.90
35111;DHT22;21290;50.158;8.658;2024-02-16T02:49:20;9.60;99.90
35111;DHT22;21290;50.158;8.658;2024-02-16T02:51:46;9.60;99.90
35111;DHT22;21290;50.158;8.658;2024-02-16T02:54:13;9.50;99.90
35111;DHT22;21290;50.158;8.658;2024-02-16T02:56:40;9.50;99.90
35111;DHT22;21290;50.158;8.658;2024-02-16T02:59:07;9.50;99.90
35111;DHT22;21290;50.158;8.658;2024-02-16T03:01:35;9.40;99.90
35111;DHT22;21290;50.158;8.658;2024-02-16T03:04:02;9.40;99.90
35111;DHT22;21290;50.158;8.658;2024-02-16T03:06:29;9.40;99.90
35111;DHT22;21290;50.158;8.658;2024-02-16T03:08:55;9.40;99.90
35111;DHT22;21290;50.158;8.658;2024-02-16T03:11:23;9.40;99.90
35111;DHT22;21290;50.158;8.658;2024-02-16T03:13:50;9.50;99.90
35111;DHT22;21290;50.158;8.658;2024-02-16T03:16:16;9.40;99.90
35111;DHT22;21290;50.158;8.658;2024-02-16T03:18:43;9.40;99.90
35111;DHT22;21290;50.158;8.658;2024-02-16T03:21:13;9.40;99.90
35111;DHT22;21290;50.158;8.658;2024-02-16T03:23:44;9.40;99.90
35111;DHT22;21290;50.158;8.658;2024-02-16T03:26:18;9.40;99.90
35111;DHT22;21290;50.158;8.658;2024-02-16T03:28:45;9.40;99.90
35111;DHT22;21290;50.158;8.658;2024-02-16T03:31:20;9.30;99.90
35111;DHT22;21290;50.158;8.658;2024-02-16T03:33:48;9.30;99.90
35111;DHT22;21290;50.158;8.658;2024-02-16T03:36:15;9.30;99.90
35111;DHT22;21290;50.158;8.658;2024-02-16T03:38:46;9.30;99.90
35111;DHT22;21290;50.158;8.658;2024-02-16T03:41:14;9.20;99.90
35111;DHT22;21290;50.158;8.658;2024-02-16T03:43:41;9.30;99.90
35111;DHT22;21290;50.158;8.658;2024-02-16T03:46:09;9.20;99.90
35111;DHT22;21290;50.158;8.658;2024-02-16T03:48:37;9.20;99.90
35111;DHT22;21290;50.158;8.658;2024-02-16T03:51:05;9.20;99.90
35111;DHT22;21290;50.158;8.658;2024-02-16T03:53:32;9.20;99.90
35111;DHT22;21290;50.158;8.658;2024-02-16T03:55:58;9.20;99.90
35111;DHT22;21290;50.158;8.658;2024-02-16T03:58:25;9.20;99.90
35111;DHT22;21290;50.158;8.658;2024-02-16T04:00:53;9.20;99.90
35111;DHT22;21290;50.158;8.658;2024-02-16T04:03:20;9.30;99.90
35111;DHT22;21290;50.158;8.658;2024-02-16T04:05:47;9.30;99.90
35111;DHT22;21290;50.158;8.658;2024-02-16T04:08:13;9.30;99.90
35111;DHT22;21290;50.158;8.658;2024-02-16T04:10:40;9.30;99.90
35111;DHT22;21290;50.158;8.658;2024-02-16T04:13:07;9.40;99.90
35111;DHT22;21290;50.158;8.658;2024-02-16T04:15:34;9.40;99.90
35111;DHT22;21290;50.158;8.658;2024-02-16T04:18:01;9.40;99.90
35111;DHT22;21290;50.158;8.658;2024-02-16T04:20:28;9.40;99.90
35111;DHT22;21290;50.158;8.658;2024-02-16T04:22:55;9.40;99.90
35111;DHT22;21290;50.158;8.658;2024-02-16T04:25:21;9.40;99.90
35111;DHT22;21290;50.158;8.658;2024-02-16T04:27:48;9.40;99.90
35111;DHT22;21290;50.158;8.658;2024-02-16T04:30:15;9.40;99.90
35111;DHT22;21290;50.158;8.658;2024-02-16T04:32:42;9.50;99.90
35111;DHT22;21290;50.158;8.658;2024-02-16T04:35:09;9.40;99.90
35111;DHT22;21290;50.158;8.658;2024-02-16T04:37:38;9.50;99.90
35111;DHT22;21290;50.158;8.658;2024-02-16T04:40:09;9.50;99.90
35111;DHT22;21290;50.158;8.658;2024-02-16T04:42:39;9.40;99.90
35111;DHT22;21290;50.158;8.658;2024-02-16T04:45:12;9.40;99.90
35111;DHT22;21290;50.158;8.658;2024-02-16T04:47:40;9.40;99.90
35111;DHT22;21290;50.158;8.658;2024-02-16T04:50:07;9.40;99.90
35111;DHT22;21290;50.158;8.658;2024-02-16T04:52:37;9.40;99.90
35111;DHT22;21290;50.158;8.658;2024-02-16T04:55:06;9.40;99.90
35111;DHT22;21290;50.158;8.658;2024-02-16T04:57:33;9.40;99.90
35111;DHT22;21290;50.158;8.658;2024-02-16T05:00:00;9.40;99.90
35111;DHT22;21290;50.158;8.658;2024-02-16T05:02:27;9.40;99.90
35111;DHT22;21290;50.158;8.658;2024-02-16T05:04:54;9.40;99.90
35111;DHT22;21290;50.158;8.658;2024-02-16T05:07:21;9.40;99.90
35111;DHT22;21290;50.158;8.658;2024-02-16T05:09:49;9.40;99.90
35111;DHT22;21290;50.158;8.658;2024-02-16T05:12:16;9.40;99.90
35111;DHT22;21290;50.158;8.658;2024-02-16T05:14:48;9.40;99.90
35111;DHT22;21290;50.158;8.658;2024-02-16T05:17:15;9.30;99.90
35111;DHT22;21290;50.158;8.658;2024-02-16T05:19:42;9.30;99.90
35111;DHT22;21290;50.158;8.658;2024-02-16T05:22:09;9.30;99.90
35111;DHT22;21290;50.158;8.658;2024-02-16T05:24:36;9.40;99.90
35111;DHT22;21290;50.158;8.658;2024-02-16T05:27:03;9.30;99.90
35111;DHT22;21290;50.158;8.658;2024-02-16T05:29:30;9.40;99.90
35111;DHT22;21290;50.158;8.658;2024-02-16T05:31:57;9.40;99.90
35111;DHT22;21290;50.158;8.658;2024-02-16T05:34:24;9.40;99.90
35111;DHT22;21290;50.158;8.658;2024-02-16T05:36:52;9.40;99.90
35111;DHT22;21290;50.158;8.658;2024-02-16T05:39:19;9.40;99.90
35111;DHT22;21290;50.158;8.658;2024-02-16T05:41:58;9.40;99.90
35111;DHT22;21290;50.158;8.658;2024-02-16T05:44:25;9.30;99.90
35111;DHT22;21290;50.158;8.658;2024-02-16T05:46:51;9.30;99.90
35111;DHT22;21290;50.158;8.658;2024-02-16T05:49:18;9.30;99.90
35111;DHT22;21290;50.158;8.658;2024-02-16T05:51:46;9.30;99.90
35111;DHT22;21290;50.158;8.658;2024-02-16T05:54:33;9.30;99.90
35111;DHT22;21290;50.158;8.658;2024-02-16T05:57:04;9.40;99.90
35111;DHT22;21290;50.158;8.658;2024-02-16T05:59:32;9.40;99.90
35111;DHT22;21290;50.158;8.658;2024-02-16T06:01:59;9.50;99.90
35111;DHT22;21290;50.158;8.658;2024-02-16T06:04:27;9.60;99.90
35111;DHT22;21290;50.158;8.658;2024-02-16T06:06:54;9.60;99.90
35111;DHT22;21290;50.158;8.658;2024-02-16T06:09:21;9.60;99.90
35111;DHT22;21290;50.158;8.658;2024-02-16T06:11:48;9.60;99.90
35111;DHT22;21290;50.158;8.658;2024-02-16T06:14:15;9.70;99.90
35111;DHT22;21290;50.158;8.658;2024-02-16T06:16:45;9.70;99.90
35111;DHT22;21290;50.158;8.658;2024-02-16T06:19:12;9.70;99.90
35111;DHT22;21290;50.158;8.658;2024-02-16T06:21:39;9.80;99.90
35111;DHT22;21290;50.158;8.658;2024-02-16T06:24:06;9.80;99.90
35111;DHT22;21290;50.158;8.658;2024-02-16T06:26:34;9.90;99.90
35111;DHT22;21290;50.158;8.658;2024-02-16T06:29:01;10.00;99.90
35111;DHT22;21290;50.158;8.658;2024-02-16T06:31:27;10.10;99.90
35111;DHT22;21290;50.158;8.658;2024-02-16T06:33:54;10.10;99.90
35111;DHT22;21290;50.158;8.658;2024-02-16T06:36:24;10.20;99.90
35111;DHT22;21290;50.158;8.658;2024-02-16T06:38:50;10.30;99.90
35111;DHT22;21290;50.158;8.658;2024-02-16T06:41:18;10.30;99.90
35111;DHT22;21290;50.158;8.658;2024-02-16T06:43:45;10.40;99.90
35111;DHT22;21290;50.158;8.658;2024-02-16T06:46:12;10.40;99.90
35111;DHT22;21290;50.158;8.658;2024-02-16T06:48:38;10.40;99.90
35111;DHT22;21290;50.158;8.658;2024-02-16T06:51:05;10.40;99.90
35111;DHT22;21290;50.158;8.658;2024-02-16T06:53:36;10.30;99.90
35111;DHT22;21290;50.158;8.658;2024-02-16T06:56:02;10.40;99.90
35111;DHT22;21290;50.158;8.658;2024-02-16T06:58:29;10.40;99.90
35111;DHT22;21290;50.158;8.658;2024-02-16T07:00:56;10.40;99.90
35111;DHT22;21290;50.158;8.658;2024-02-16T07:03:24;10.50;99.90
35111;DHT22;21290;50.158;8.658;2024-02-16T07:05:52;10.50;99.90
35111;DHT22;21290;50.158;8.658;2024-02-16T07:08:21;10.50;99.90
35111;DHT22;21290;50.158;8.658;2024-02-16T07:10:50;10.60;99.90
35111;DHT22;21290;50.158;8.658;2024-02-16T07:13:19;10.60;99.90
35111;DHT22;21290;50.158;8.658;2024-02-16T07:15:46;10.70;99.90
35111;DHT22;21290;50.158;8.658;2024-02-16T07:18:12;10.70;99.90
35111;DHT22;21290;50.158;8.658;2024-02-16T07:20:40;10.70;99.90
35111;DHT22;21290;50.158;8.658;2024-02-16T07:23:06;10.80;99.90
35111;DHT22;21290;50.158;8.658;2024-02-16T07:25:33;10.80;99.90
35111;DHT22;21290;50.158;8.658;2024-02-16T07:28:00;10.80;99.90
35111;DHT22;21290;50.158;8.658;2024-02-16T07:30:27;10.80;99.90
35111;DHT22;21290;50.158;8.658;2024-02-16T07:33:06;10.80;99.90
35111;DHT22;21290;50.158;8.658;2024-02-16T07:35:35;10.80;99.90
35111;DHT22;21290;50.158;8.658;2024-02-16T07:38:05;10.90;99.90
35111;DHT22;21290;50.158;8.658;2024-02-16T07:40:32;10.80;99.90
35111;DHT22;21290;50.158;8.658;2024-02-16T07:42:59;10.80;99.90
35111;DHT22;21290;50.158;8.658;2024-02-16T07:45:27;10.90;99.90
35111;DHT22;21290;50.158;8.658;2024-02-16T07:47:55;10.90;99.90
35111;DHT22;21290;50.158;8.658;2024-02-16T07:50:23;10.90;99.90
35111;DHT22;21290;50.158;8.658;2024-02-16T07:52:50;10.90;99.90
35111;DHT22;21290;50.158;8.658;2024-02-16T07:55:17;11.00;99.90
35111;DHT22;21290;50.158;8.658;2024-02-16T07:57:44;11.10;99.90
35111;DHT22;21290;50.158;8.658;2024-02-16T08:00:18;11.20;99.90
35111;DHT22;21290;50.158;8.658;2024-02-16T08:02:45;11.30;99.90
35111;DHT22;21290;50.158;8.658;2024-02-16T08:05:14;11.40;99.90
35111;DHT22;21290;50.158;8.658;2024-02-16T08:07:42;11.50;99.90
35111;DHT22;21290;50.158;8.658;2024-02-16T08:10:10;11.60;99.90
35111;DHT22;21290;50.158;8.658;2024-02-16T08:12:37;11.60;99.90
35111;DHT22;21290;50.158;8.658;2024-02-16T08:15:06;11.90;99.90
35111;DHT22;21290;50.158;8.658;2024-02-16T08:17:34;12.50;99.90
35111;DHT22;21290;50.158;8.658;2024-02-16T08:20:02;12.90;99.90
35111;DHT22;21290;50.158;8.658;2024-02-16T08:22:29;13.10;99.90
35111;DHT22;21290;50.158;8.658;2024-02-16T08:24:56;12.90;99.90
35111;DHT22;21290;50.158;8.658;2024-02-16T08:27:47;12.80;99.90
35111;DHT22;21290;50.158;8.658;2024-02-16T08:30:14;12.70;99.90
35111;DHT22;21290;50.158;8.658;2024-02-16T08:32:41;12.50;99.90
35111;DHT22;21290;50.158;8.658;2024-02-16T08:35:08;12.40;99.90
35111;DHT22;21290;50.158;8.658;2024-02-16T08:37:35;12.40;99.90
35111;DHT22;21290;50.158;8.658;2024-02-16T08:40:03;12.30;99.90
35111;DHT22;21290;50.158;8.658;2024-02-16T08:42:30;12.30;99.90
35111;DHT22;21290;50.158;8.658;2024-02-16T08:52:37;12.10;99.90
35111;DHT22;21290;50.158;8.658;2024-02-16T08:59:16;12.20;99.90
35111;DHT22;21290;50.158;8.658;2024-02-16T09:01:42;12.30;99.90
35111;DHT22;21290;50.158;8.658;2024-02-16T09:04:10;12.30;99.90
35111;DHT22;21290;50.158;8.658;2024-02-16T09:06:37;12.20;99.90
35111;DHT22;21290;50.158;8.658;2024-02-16T09:09:05;12.40;99.90
35111;DHT22;21290;50.158;8.658;2024-02-16T09:11:34;12.30;99.90
35111;DHT22;21290;50.158;8.658;2024-02-16T09:14:00;12.30;99.90
35111;DHT22;21290;50.158;8.658;2024-02-16T09:16:27;12.40;99.90
35111;DHT22;21290;50.158;8.658;2024-02-16T09:18:54;12.40;99.90
35111;DHT22;21290;50.158;8.658;2024-02-16T09:21:21;12.40;99.90
35111;DHT22;21290;50.158;8.658;2024-02-16T09:23:50;12.40;99.90
35111;DHT22;21290;50.158;8.658;2024-02-16T09:26:17;12.40;99.90
35111;DHT22;21290;50.158;8.658;2024-02-16T09:28:44;12.30;99.90
35111;DHT22;21290;50.158;8.658;2024-02-16T09:31:14;12.20;99.90
35111;DHT22;21290;50.158;8.658;2024-02-16T09:33:41;12.20;99.90
35111;DHT22;21290;50.158;8.658;2024-02-16T09:36:08;12.20;99.90
35111;DHT22;21290;50.158;8.658;2024-02-16T09:38:36;12.30;99.90
35111;DHT22;21290;50.158;8.658;2024-02-16T09:56:23;12.90;99.90
35111;DHT22;21290;50.158;8.658;2024-02-16T09:58:51;13.10;99.90
35111;DHT22;21290;50.158;8.658;2024-02-16T10:01:19;13.40;99.90
35111;DHT22;21290;50.158;8.658;2024-02-16T10:03:50;13.60;99.90
35111;DHT22;21290;50.158;8.658;2024-02-16T10:06:17;13.80;99.90
35111;DHT22;21290;50.158;8.658;2024-02-16T10:08:54;14.10;99.90
35111;DHT22;21290;50.158;8.658;2024-02-16T10:11:25;14.90;99.90
35111;DHT22;21290;50.158;8.658;2024-02-16T10:13:58;16.00;99.90
35111;DHT22;21290;50.158;8.658;2024-02-16T10:16:27;16.60;99.90
35111;DHT22;21290;50.158;8.658;2024-02-16T10:19:07;17.10;99.90
35111;DHT22;21290;50.158;8.658;2024-02-16T10:21:34;17.00;99.90
35111;DHT22;21290;50.158;8.658;2024-02-16T10:24:04;16.80;99.90
35111;DHT22;21290;50.158;8.658;2024-02-16T10:26:33;16.30;99.90
35111;DHT22;21290;50.158;8.658;2024-02-16T10:29:15;15.90;99.90
35111;DHT22;21290;50.158;8.658;2024-02-16T10:32:14;15.70;99.90
35111;DHT22;21290;50.158;8.658;2024-02-16T10:42:38;15.40;99.90
35111;DHT22;21290;50.158;8.658;2024-02-16T10:45:44;15.10;99.90
35111;DHT22;21290;50.158;8.658;2024-02-16T10:55:34;14.70;99.90
35111;DHT22;21290;50.158;8.658;2024-02-16T11:01:32;14.60;99.90
35111;DHT22;21290;50.158;8.658;2024-02-16T11:06:57;14.70;99.90
35111;DHT22;21290;50.158;8.658;2024-02-16T11:09:26;14.80;99.90
35111;DHT22;21290;50.158;8.658;2024-02-16T11:12:02;14.80;99.90
35111;DHT22;21290;50.158;8.658;2024-02-16T11:14:48;14.80;99.90
35111;DHT22;21290;50.158;8.658;2024-02-16T11:18:00;14.80;99.90
35111;DHT22;21290;50.158;8.658;2024-02-16T11:20:39;14.80;99.90
35111;DHT22;21290;50.158;8.658;2024-02-16T11:23:25;14.80;99.90
35111;DHT22;21290;50.158;8.658;2024-02-16T11:25:53;14.80;99.90
35111;DHT22;21290;50.158;8.658;2024-02-16T11:28:20;14.90;99.90
35111;DHT22;21290;50.158;8.658;2024-02-16T11:38:09;14.90;99.90
35111;DHT22;21290;50.158;8.658;2024-02-16T11:40:36;14.70;99.90
35111;DHT22;21290;50.158;8.658;2024-02-16T11:43:02;14.60;99.90
35111;DHT22;21290;50.158;8.658;2024-02-16T11:45:33;14.60;99.90
35111;DHT22;21290;50.158;8.658;2024-02-16T11:48:07;14.60;99.90
35111;DHT22;21290;50.158;8.658;2024-02-16T11:50:34;14.60;99.90
35111;DHT22;21290;50.158;8.658;2024-02-16T11:53:01;14.70;99.90
35111;DHT22;21290;50.158;8.658;2024-02-16T11:55:28;14.70;99.90
35111;DHT22;21290;50.158;8.658;2024-02-16T11:57:55;14.80;99.90
35111;DHT22;21290;50.158;8.658;2024-02-16T12:00:23;14.90;99.90
35111;DHT22;21290;50.158;8.658;2024-02-16T12:03:01;15.10;99.90
35111;DHT22;21290;50.158;8.658;2024-02-16T12:05:28;15.30;99.90
35111;DHT22;21290;50.158;8.658;2024-02-16T12:07:57;15.50;99.90
35111;DHT22;21290;50.158;8.658;2024-02-16T12:10:25;15.80;99.90
35111;DHT22;21290;50.158;8.658;2024-02-16T12:12:51;16.00;99.90
35111;DHT22;21290;50.158;8.658;2024-02-16T12:15:18;16.10;99.90
35111;DHT22;21290;50.158;8.658;2024-02-16T12:17:47;16.10;99.90
35111;DHT22;21290;50.158;8.658;2024-02-16T12:20:55;16.00;99.90
35111;DHT22;21290;50.158;8.658;2024-02-16T12:33:23;15.50;99.90
35111;DHT22;21290;50.158;8.658;2024-02-16T12:35:51;15.50;99.90
35111;DHT22;21290;50.158;8.658;2024-02-16T12:38:18;15.50;99.90
35111;DHT22;21290;50.158;8.658;2024-02-16T12:40:46;15.50;99.90
35111;DHT22;21290;50.158;8.658;2024-02-16T12:50:49;15.70;99.90
35111;DHT22;21290;50.158;8.658;2024-02-16T12:53:50;15.90;99.90
35111;DHT22;21290;50.158;8.658;2024-02-16T12:56:18;16.00;99.90
35111;DHT22;21290;50.158;8.658;2024-02-16T12:58:45;16.00;99.90
35111;DHT22;21290;50.158;8.658;2024-02-16T13:01:12;16.10;99.90
35111;DHT22;21290;50.158;8.658;2024-02-16T13:03:57;16.30;99.90
35111;DHT22;21290;50.158;8.658;2024-02-16T13:06:30;16.40;99.90
35111;DHT22;21290;50.158;8.658;2024-02-16T13:08:57;16.50;99.90
35111;DHT22;21290;50.158;8.658;2024-02-16T13:11:36;16.60;99.90
35111;DHT22;21290;50.158;8.658;2024-02-16T13:14:04;16.70;99.90
35111;DHT22;21290;50.158;8.658;2024-02-16T13:16:31;17.00;99.90
35111;DHT22;21290;50.158;8.658;2024-02-16T13:18:57;17.20;99.90
35111;DHT22;21290;50.158;8.658;2024-02-16T13:21:24;17.20;99.90
35111;DHT22;21290;50.158;8.658;2024-02-16T13:23:54;17.10;99.90
35111;DHT22;21290;50.158;8.658;2024-02-16T13:26:21;17.10;99.90
35111;DHT22;21290;50.158;8.658;2024-02-16T13:28:52;17.20;99.90
35111;DHT22;21290;50.158;8.658;2024-02-16T13:31:21;17.10;99.90
35111;DHT22;21290;50.158;8.658;2024-02-16T13:33:49;17.00;99.90
35111;DHT22;21290;50.158;8.658;2024-02-16T13:36:19;16.80;99.90
35111;DHT22;21290;50.158;8.658;2024-02-16T13:38:46;16.80;99.90
35111;DHT22;21290;50.158;8.658;2024-02-16T13:41:14;16.70;99.90
35111;DHT22;21290;50.158;8.658;2024-02-16T13:43:46;16.60;99.90
35111;DHT22;21290;50.158;8.658;2024-02-16T13:46:14;16.50;99.90
35111;DHT22;21290;50.158;8.658;2024-02-16T13:48:42;16.40;99.90
35111;DHT22;21290;50.158;8.658;2024-02-16T13:51:10;16.30;99.90
35111;DHT22;21290;50.158;8.658;2024-02-16T13:53:37;16.30;99.90
35111;DHT22;21290;50.158;8.658;2024-02-16T13:56:05;16.30;99.90
35111;DHT22;21290;50.158;8.658;2024-02-16T13:58:32;16.40;99.90
35111;DHT22;21290;50.158;8.658;2024-02-16T14:01:01;16.30;99.90
35111;DHT22;21290;50.158;8.658;2024-02-16T14:03:30;16.30;99.90
35111;DHT22;21290;50.158;8.658;2024-02-16T14:05:57;16.30;99.90
35111;DHT22;21290;50.158;8.658;2024-02-16T14:08:25;16.40;99.90
35111;DHT22;21290;50.158;8.658;2024-02-16T14:10:53;16.40;99.90
35111;DHT22;21290;50.158;8.658;2024-02-16T14:13:20;16.30;99.90
35111;DHT22;21290;50.158;8.658;2024-02-16T14:15:47;16.30;99.90
35111;DHT22;21290;50.158;8.658;2024-02-16T14:18:14;16.40;99.90
35111;DHT22;21290;50.158;8.658;2024-02-16T14:20:55;16.50;99.90
35111;DHT22;21290;50.158;8.658;2024-02-16T14:23:22;16.50;99.90
35111;DHT22;21290;50.158;8.658;2024-02-16T14:25:48;16.50;99.90
35111;DHT22;21290;50.158;8.658;2024-02-16T14:28:15;16.50;99.90
35111;DHT22;21290;50.158;8.658;2024-02-16T14:30:42;16.50;99.90
35111;DHT22;21290;50.158;8.658;2024-02-16T14:33:09;16.40;99.90
35111;DHT22;21290;50.158;8.658;2024-02-16T14:35:37;16.30;99.90
35111;DHT22;21290;50.158;8.658;2024-02-16T14:38:04;16.30;99.90
35111;DHT22;21290;50.158;8.658;2024-02-16T14:40:31;16.10;99.90
35111;DHT22;21290;50.158;8.658;2024-02-16T14:42:59;16.00;99.90
35111;DHT22;21290;50.158;8.658;2024-02-16T14:45:26;16.00;99.90
35111;DHT22;21290;50.158;8.658;2024-02-16T14:47:53;16.00;99.90
35111;DHT22;21290;50.158;8.658;2024-02-16T14:50:22;16.00;99.90
35111;DHT22;21290;50.158;8.658;2024-02-16T14:52:49;16.00;99.90
35111;DHT22;21290;50.158;8.658;2024-02-16T14:55:19;16.10;99.90
35111;DHT22;21290;50.158;8.658;2024-02-16T14:57:46;16.10;99.90
35111;DHT22;21290;50.158;8.658;2024-02-16T15:00:19;16.10;99.90
35111;DHT22;21290;50.158;8.658;2024-02-16T15:02:48;16.10;99.90
35111;DHT22;21290;50.158;8.658;2024-02-16T15:05:19;16.10;99.90
35111;DHT22;21290;50.158;8.658;2024-02-16T15:07:48;16.20;99.90
35111;DHT22;21290;50.158;8.658;2024-02-16T15:10:16;16.10;99.90
35111;DHT22;21290;50.158;8.658;2024-02-16T15:12:43;16.00;99.90
35111;DHT22;21290;50.158;8.658;2024-02-16T15:15:10;15.90;99.90
35111;DHT22;21290;50.158;8.658;2024-02-16T15:17:38;15.80;99.90
35111;DHT22;21290;50.158;8.658;2024-02-16T15:20:06;15.70;99.90
35111;DHT22;21290;50.158;8.658;2024-02-16T15:22:33;15.70;99.90
35111;DHT22;21290;50.158;8.658;2024-02-16T15:25:13;15.70;99.90
35111;DHT22;21290;50.158;8.658;2024-02-16T15:27:41;15.70;99.90
35111;DHT22;21290;50.158;8.658;2024-02-16T15:30:08;15.60;99.90
35111;DHT22;21290;50.158;8.658;2024-02-16T15:32:35;15.60;99.90
35111;DHT22;21290;50.158;8.658;2024-02-16T15:35:01;15.60;99.90
35111;DHT22;21290;50.158;8.658;2024-02-16T15:37:29;15.50;99.90
35111;DHT22;21290;50.158;8.658;2024-02-16T15:39:57;15.50;99.90
35111;DHT22;21290;50.158;8.658;2024-02-16T15:42:30;15.50;99.90
35111;DHT22;21290;50.158;8.658;2024-02-16T15:44:57;15.40;99.90
35111;DHT22;21290;50.158;8.658;2024-02-16T15:47:25;15.40;99.90
35111;DHT22;21290;50.158;8.658;2024-02-16T15:49:52;15.30;99.90
35111;DHT22;21290;50.158;8.658;2024-02-16T15:52:19;15.30;99.90
35111;DHT22;21290;50.158;8.658;2024-02-16T15:54:46;15.20;99.90
35111;DHT22;21290;50.158;8.658;2024-02-16T15:57:12;15.20;99.90
35111;DHT22;21290;50.158;8.658;2024-02-16T15:59:39;15.20;99.90
35111;DHT22;21290;50.158;8.658;2024-02-16T16:02:07;15.20;99.90
35111;DHT22;21290;50.158;8.658;2024-02-16T16:04:34;15.20;99.90
35111;DHT22;21290;50.158;8.658;2024-02-16T16:07:01;15.10;99.90
35111;DHT22;21290;50.158;8.658;2024-02-16T16:09:28;15.10;99.90
35111;DHT22;21290;50.158;8.658;2024-02-16T16:11:55;15.00;99.90
35111;DHT22;21290;50.158;8.658;2024-02-16T16:14:22;15.00;99.90
35111;DHT22;21290;50.158;8.658;2024-02-16T16:16:48;15.00;99.90
35111;DHT22;21290;50.158;8.658;2024-02-16T16:19:20;14.90;99.90
35111;DHT22;21290;50.158;8.658;2024-02-16T16:21:48;14.80;99.90
35111;DHT22;21290;50.158;8.658;2024-02-16T16:24:15;14.70;99.90
35111;DHT22;21290;50.158;8.658;2024-02-16T16:26:43;14.70;99.90
35111;DHT22;21290;50.158;8.658;2024-02-16T16:29:11;14.60;99.90
35111;DHT22;21290;50.158;8.658;2024-02-16T16:31:37;14.60;99.90
35111;DHT22;21290;50.158;8.658;2024-02-16T16:34:05;14.60;99.90
35111;DHT22;21290;50.158;8.658;2024-02-16T16:36:32;14.60;99.90
35111;DHT22;21290;50.158;8.658;2024-02-16T16:39:00;14.50;99.90
35111;DHT22;21290;50.158;8.658;2024-02-16T16:41:27;14.50;99.90
35111;DHT22;21290;50.158;8.658;2024-02-16T16:43:53;14.40;99.90
35111;DHT22;21290;50.158;8.658;2024-02-16T16:46:20;14.40;99.90
35111;DHT22;21290;50.158;8.658;2024-02-16T16:48:47;14.30;99.90
35111;DHT22;21290;50.158;8.658;2024-02-16T16:51:14;14.30;99.90
35111;DHT22;21290;50.158;8.658;2024-02-16T16:53:41;14.30;99.90
35111;DHT22;21290;50.158;8.658;2024-02-16T16:56:07;14.20;99.90
35111;DHT22;21290;50.158;8.658;2024-02-16T16:58:34;14.20;99.90